Time;durP1;ratioP1;P1;durP2;ratioP2;P2;SDS_P1;SDS_P2;PMS_P1;PMS_P2;Temp;Humidity;BMP_temperature;BMP_pressure;BME280_temperature;BME280_humidity;BME280_pressure;Samples;Min_cycle;Max_cycle;Signal;HPM_P1;HPM_P2
2022/09/10 00:01:13;;;;;;;;;;;;;;;-142.75;100.00;76219.91;5013279;28;20395;-71
2022/09/10 00:03:38;;;;;;;;;;;;;;;-142.75;100.00;76223.84;5013342;28;19974;-71
2022/09/10 00:06:04;;;;;;;;;;;;;;;-142.75;100.00;76212.03;5013259;28;19914;-71
2022/09/10 00:08:30;;;;;;;;;;;;;;;-142.75;100.00;76215.97;5012827;28;19939;-71
2022/09/10 00:10:56;;;;;;;;;;;;;;;-142.75;100.00;76233.69;5013215;28;19924;-71
2022/09/10 00:13:22;;;;;;;;;;;;;;;-142.75;100.00;76235.66;5013031;28;20364;-71
2022/09/10 00:15:48;;;;;;;;;;;;;;;-142.75;100.00;76219.91;5013013;28;19913;-71
2022/09/10 00:18:15;;;;;;;;;;;;;;;-142.75;100.00;76223.84;5012710;28;19913;-71
2022/09/10 00:20:43;;;;;;;;;;;;;;;-142.75;100.00;76219.91;5013063;28;19955;-71
2022/09/10 00:23:08;;;;;;;;;;;;;;;-142.75;100.00;76225.81;5012985;28;20012;-71
2022/09/10 00:25:33;;;;;;;;;;;;;;;-142.75;100.00;76223.84;5012924;28;19996;-71
2022/09/10 00:27:59;;;;;;;;;;;;;;;-142.75;100.00;76214.00;5012487;28;19967;-71
2022/09/10 00:30:26;;;;;;;;;;;;;;;-142.75;100.00;76227.78;5012748;28;20409;-71
2022/09/10 00:32:51;;;;;;;;;;;;;;;-142.75;100.00;76221.88;5012704;28;19960;-71
2022/09/10 00:35:18;;;;;;;;;;;;;;;-142.75;100.00;76227.78;5012795;28;20335;-71
2022/09/10 00:37:43;;;;;;;;;;;;;;;-142.75;100.00;76235.66;5012541;28;19920;-71
2022/09/10 00:40:10;;;;;;;;;;;;;;;-142.75;100.00;76227.78;5012554;28;19917;-71
2022/09/10 00:42:35;;;;;;;;;;;;;;;-142.75;100.00;76247.47;5012692;28;19918;-71
2022/09/10 00:45:02;;;;;;;;;;;;;;;-142.75;100.00;76245.50;5012603;28;19982;-71
2022/09/10 00:47:32;;;;;;;;;;;;;;;-142.75;100.00;76259.28;5012196;28;19914;-71
2022/09/10 00:50:04;;;;;;;;;;;;;;;-142.75;100.00;76251.41;5011275;28;19917;-71
2022/09/10 00:52:29;;;;;;;;;;;;;;;-142.75;100.00;76263.22;5012596;28;20441;-71
2022/09/10 00:54:55;;;;;;;;;;;;;;;-142.75;100.00;76267.16;5012556;28;20011;-71
2022/09/10 00:57:21;;;;;;;;;;;;;;;-142.75;100.00;76263.22;5012202;28;20303;-71
2022/09/10 00:59:50;;;;;;;;;;;;;;;-142.75;100.00;76265.19;5012420;28;19914;-71
2022/09/10 01:02:15;;;;;;;;;;;;;;;-142.75;100.00;76259.28;5012525;28;19996;-71
2022/09/10 01:04:41;;;;;;;;;;;;;;;-142.75;100.00;76263.22;5012531;28;19920;-71
2022/09/10 01:07:08;;;;;;;;;;;;;;;-142.75;100.00;76277.00;5012178;28;19976;-70
2022/09/10 01:09:34;;;;;;;;;;;;;;;-142.75;100.00;76288.81;5012293;28;19918;-71
2022/09/10 01:12:06;;;;;;;;;;;;;;;-142.75;100.00;76290.78;5012373;28;20306;-71
2022/09/10 01:14:54;;;;;;;;;;;;;;;-142.75;100.00;76294.72;5012350;28;19964;-71
2022/09/10 01:17:28;;;;;;;;;;;;;;;-142.75;100.00;76288.81;5006512;28;20276;-71
2022/09/10 01:20:12;;;;;;;;;;;;;;;-142.75;100.00;76290.78;5012305;28;19914;-71
2022/09/10 01:22:56;;;;;;;;;;;;;;;-142.75;100.00;76286.84;5012335;28;19913;-71
2022/09/10 01:25:42;;;;;;;;;;;;;;;-142.75;100.00;76286.84;5011028;28;19964;-71
2022/09/10 01:28:21;;;;;;;;;;;;;;;-142.75;100.00;76282.91;5011932;28;19972;-71
2022/09/10 01:30:50;;;;;;;;;;;;;;;-142.75;100.00;76275.03;5012295;28;20011;-71
2022/09/10 01:33:19;;;;;;;;;;;;;;;-142.75;100.00;76273.06;5012231;28;19917;-71
2022/09/10 01:35:48;;;;;;;;;;;;;;;-142.75;100.00;76271.09;5012208;28;19913;-71
2022/09/10 01:38:34;;;;;;;;;;;;;;;-142.75;100.00;76255.34;5011782;28;20059;-72
2022/09/10 01:41:00;;;;;;;;;;;;;;;-142.75;100.00;76257.31;5010395;28;19921;-71
2022/09/10 01:43:25;;;;;;;;;;;;;;;-142.75;100.00;76243.53;5012161;28;19913;-71
2022/09/10 01:45:50;;;;;;;;;;;;;;;-142.75;100.00;76237.63;5012910;28;19917;-71
2022/09/10 01:48:31;;;;;;;;;;;;;;;-142.75;100.00;76233.69;5015505;28;19953;-71
2022/09/10 01:51:14;;;;;;;;;;;;;;;-142.75;100.00;76212.03;5014568;28;19917;-71
2022/09/10 01:53:56;;;;;;;;;;;;;;;-142.75;100.00;76196.31;5015706;28;19968;-71
2022/09/10 01:56:35;;;;;;;;;;;;;;;-142.75;100.00;76204.16;5015710;28;19914;-71
2022/09/10 01:59:08;;;;;;;;;;;;;;;-142.75;100.00;76200.25;5015536;28;19936;-70
2022/09/10 02:01:42;;;;;;;;;;;;;;;-142.75;100.00;76202.19;5014336;28;19960;-71
2022/09/10 02:04:08;;;;;;;;;;;;;;;-142.75;100.00;76192.38;5015505;28;19917;-70
2022/09/10 02:06:36;;;;;;;;;;;;;;;-142.75;100.00;76200.25;5015269;28;20004;-71
2022/09/10 02:09:02;;;;;;;;;;;;;;;-142.75;100.00;76198.28;5015286;28;19917;-71
2022/09/10 02:11:27;;;;;;;;;;;;;;;-142.75;100.00;76200.25;5015383;28;19920;-71
2022/09/10 02:13:53;;;;;;;;;;;;;;;-142.75;100.00;76196.31;5015344;28;19920;-71
2022/09/10 02:16:25;;;;;;;;;;;;;;;-142.75;100.00;76198.28;5015252;28;20008;-71
2022/09/10 02:18:50;;;;;;;;;;;;;;;-142.75;100.00;76210.06;5015035;28;19913;-71
2022/09/10 02:21:16;;;;;;;;;;;;;;;-142.75;100.00;76214.00;5015205;28;19924;-71
2022/09/10 02:23:43;;;;;;;;;;;;;;;-142.75;100.00;76212.03;5015162;28;20014;-70
2022/09/10 02:26:09;;;;;;;;;;;;;;;-142.75;100.00;76206.13;5013850;28;19920;-71
2022/09/10 02:28:34;;;;;;;;;;;;;;;-142.75;100.00;76196.31;5014672;28;19913;-71
2022/09/10 02:31:00;;;;;;;;;;;;;;;-142.75;100.00;76198.28;5015054;28;19940;-71
2022/09/10 02:33:25;;;;;;;;;;;;;;;-142.75;100.00;76184.50;5015060;28;19913;-71
2022/09/10 02:35:52;;;;;;;;;;;;;;;-142.75;100.00;76186.47;5014989;28;20367;-71
2022/09/10 02:38:17;;;;;;;;;;;;;;;-142.75;100.00;76180.56;5014480;28;20401;-71
2022/09/10 02:40:42;;;;;;;;;;;;;;;-142.75;100.00;76186.47;5014951;28;19949;-71
2022/09/10 02:43:08;;;;;;;;;;;;;;;-142.75;100.00;76184.50;5014861;28;19913;-70
2022/09/10 02:45:33;;;;;;;;;;;;;;;-142.75;100.00;76174.66;5014814;28;20326;-70
2022/09/10 02:47:59;;;;;;;;;;;;;;;-142.75;100.00;76176.63;5014404;28;19920;-71
2022/09/10 02:50:24;;;;;;;;;;;;;;;-142.75;100.00;76176.63;5014620;28;19917;-71
2022/09/10 02:52:50;;;;;;;;;;;;;;;-142.75;100.00;76182.53;5014615;28;19913;-70
2022/09/10 02:55:15;;;;;;;;;;;;;;;-142.75;100.00;76180.56;5014574;28;19944;-70
2022/09/10 02:57:41;;;;;;;;;;;;;;;-142.75;100.00;76162.84;5013012;28;19913;-70
2022/09/10 03:00:07;;;;;;;;;;;;;;;-142.75;100.00;76156.94;5014468;28;19930;-70
2022/09/10 03:02:33;;;;;;;;;;;;;;;-142.75;100.00;76160.88;5013246;28;19921;-70
2022/09/10 03:04:58;;;;;;;;;;;;;;;-142.75;100.00;76151.03;5014521;28;19913;-71
2022/09/10 03:07:23;;;;;;;;;;;;;;;-142.75;100.00;76151.03;5014239;28;20299;-70
2022/09/10 03:09:48;;;;;;;;;;;;;;;-142.75;100.00;76154.97;5014349;28;20051;-70
2022/09/10 03:12:15;;;;;;;;;;;;;;;-142.75;100.00;76156.94;5014371;28;20048;-71
2022/09/10 03:14:40;;;;;;;;;;;;;;;-142.75;100.00;76149.06;5014201;28;19913;-71
2022/09/10 03:17:06;;;;;;;;;;;;;;;-142.75;100.00;76149.06;5013913;28;19921;-70
2022/09/10 03:19:31;;;;;;;;;;;;;;;-142.75;100.00;76145.13;5014202;28;20494;-70
2022/09/10 03:21:56;;;;;;;;;;;;;;;-142.75;100.00;76147.09;5014185;28;20027;-70
2022/09/10 03:24:21;;;;;;;;;;;;;;;-142.75;100.00;76133.31;5014119;28;20319;-70
2022/09/10 03:26:47;;;;;;;;;;;;;;;-142.75;100.00;76137.25;5012553;28;20003;-71
2022/09/10 03:29:12;;;;;;;;;;;;;;;-142.75;100.00;76125.44;5013842;28;19918;-71
2022/09/10 03:31:38;;;;;;;;;;;;;;;-142.75;100.00;76141.19;5013927;28;19917;-71
2022/09/10 03:34:04;;;;;;;;;;;;;;;-142.75;100.00;76145.13;5012583;28;19944;-71
2022/09/10 03:36:30;;;;;;;;;;;;;;;-142.75;100.00;76143.16;5014004;28;20350;-71
2022/09/10 03:38:56;;;;;;;;;;;;;;;-142.75;100.00;76141.19;5013474;28;19917;-70
2022/09/10 03:41:21;;;;;;;;;;;;;;;-142.75;100.00;76143.16;5013741;28;20004;-71
2022/09/10 03:43:47;;;;;;;;;;;;;;;-142.75;100.00;76135.28;5013700;28;20354;-71
2022/09/10 03:46:13;;;;;;;;;;;;;;;-142.75;100.00;76133.31;5013633;28;19920;-71
2022/09/10 03:48:38;;;;;;;;;;;;;;;-142.75;100.00;76141.19;5011914;28;19914;-71
2022/09/10 03:51:03;;;;;;;;;;;;;;;-142.75;100.00;76154.97;5013532;28;19913;-71
2022/09/10 03:53:28;;;;;;;;;;;;;;;-142.75;100.00;76151.03;5013506;28;20510;-70
2022/09/10 03:55:54;;;;;;;;;;;;;;;-142.75;100.00;76160.88;5013439;28;20383;-70
2022/09/10 03:58:19;;;;;;;;;;;;;;;-142.75;100.00;76147.09;5011867;28;19914;-71
2022/09/10 04:00:45;;;;;;;;;;;;;;;-142.75;100.00;76145.13;5013330;28;19917;-71
2022/09/10 04:03:10;;;;;;;;;;;;;;;-142.75;100.00;76133.31;5013418;28;19913;-71
2022/09/10 04:05:38;;;;;;;;;;;;;;;-142.75;100.00;76135.28;5012191;28;20395;-71
2022/09/10 04:08:06;;;;;;;;;;;;;;;-142.75;100.00;76129.38;5012621;28;19968;-71
2022/09/10 04:10:31;;;;;;;;;;;;;;;-142.75;100.00;76129.38;5013057;28;19918;-71
2022/09/10 04:12:57;;;;;;;;;;;;;;;-142.75;100.00;76127.41;5013153;28;19920;-70
2022/09/10 04:15:23;;;;;;;;;;;;;;;-142.75;100.00;76137.25;5013209;28;19914;-70
2022/09/10 04:17:50;;;;;;;;;;;;;;;-142.75;100.00;76133.31;5012774;28;19959;-71
2022/09/10 04:20:16;;;;;;;;;;;;;;;-142.75;100.00;76137.25;5013001;28;19921;-71
2022/09/10 04:22:41;;;;;;;;;;;;;;;-142.75;100.00;76135.28;5013017;28;20014;-71
2022/09/10 04:25:07;;;;;;;;;;;;;;;-142.75;100.00;76139.22;5012915;28;20406;-71
2022/09/10 04:27:34;;;;;;;;;;;;;;;-142.75;100.00;76139.22;5011862;28;20223;-71
2022/09/10 04:29:59;;;;;;;;;;;;;;;-142.75;100.00;76143.16;5012778;28;20355;-71
2022/09/10 04:32:24;;;;;;;;;;;;;;;-142.75;100.00;76151.03;5011635;28;19924;-71
2022/09/10 04:34:50;;;;;;;;;;;;;;;-142.75;100.00;76147.09;5011561;28;19919;-71
2022/09/10 04:37:15;;;;;;;;;;;;;;;-142.75;100.00;76141.19;5012554;28;19917;-71
2022/09/10 04:39:42;;;;;;;;;;;;;;;-142.75;100.00;76131.34;5012623;28;20268;-72
2022/09/10 04:42:08;;;;;;;;;;;;;;;-142.75;100.00;76135.28;5012089;28;19918;-71
2022/09/10 04:44:33;;;;;;;;;;;;;;;-142.75;100.00;76127.41;5012251;28;19921;-71
2022/09/10 04:46:59;;;;;;;;;;;;;;;-142.75;100.00;76129.38;5012042;28;19920;-70
2022/09/10 04:49:24;;;;;;;;;;;;;;;-142.75;100.00;76137.25;5012037;28;19925;-71
2022/09/10 04:51:49;;;;;;;;;;;;;;;-142.75;100.00;76137.25;5010886;28;19913;-71
2022/09/10 04:54:14;;;;;;;;;;;;;;;-142.75;100.00;76141.19;5012546;28;19918;-71
2022/09/10 04:56:39;;;;;;;;;;;;;;;-142.75;100.00;76137.25;5012308;28;19914;-71
2022/09/10 04:59:05;;;;;;;;;;;;;;;-142.75;100.00;76137.25;5012432;28;20447;-71
2022/09/10 05:01:30;;;;;;;;;;;;;;;-142.75;100.00;76137.25;5012510;28;20326;-71
2022/09/10 05:03:55;;;;;;;;;;;;;;;-142.75;100.00;76135.28;5011226;28;19913;-71
2022/09/10 05:06:22;;;;;;;;;;;;;;;-142.75;100.00;76133.31;5011227;28;20367;-71
2022/09/10 05:08:47;;;;;;;;;;;;;;;-142.75;100.00;76127.41;5012021;28;19917;-71
2022/09/10 05:11:12;;;;;;;;;;;;;;;-142.75;100.00;76125.44;5012449;28;19959;-71
2022/09/10 05:13:38;;;;;;;;;;;;;;;-142.75;100.00;76125.44;5012390;28;19917;-71
2022/09/10 05:16:03;;;;;;;;;;;;;;;-142.75;100.00;76117.56;5011204;28;20303;-71
2022/09/10 05:18:28;;;;;;;;;;;;;;;-142.75;100.00;76113.63;5010766;28;20283;-72
2022/09/10 05:20:54;;;;;;;;;;;;;;;-142.75;100.00;76103.78;5014723;28;19944;-71
2022/09/10 05:23:19;;;;;;;;;;;;;;;-142.75;100.00;76101.81;5016297;28;19961;-71
2022/09/10 05:25:47;;;;;;;;;;;;;;;-142.75;100.00;76103.78;5016273;28;19918;-71
2022/09/10 05:28:12;;;;;;;;;;;;;;;-142.75;100.00;76101.81;5015836;28;20395;-71
2022/09/10 05:30:37;;;;;;;;;;;;;;;-142.75;100.00;76103.78;5016328;28;19917;-71
2022/09/10 05:33:02;;;;;;;;;;;;;;;-142.75;100.00;76107.72;5016251;28;19948;-71
2022/09/10 05:35:28;;;;;;;;;;;;;;;-142.75;100.00;76105.75;5014869;28;20398;-71
2022/09/10 05:37:55;;;;;;;;;;;;;;;-142.75;100.00;76105.75;5014514;28;19913;-71
2022/09/10 05:40:21;;;;;;;;;;;;;;;-142.75;100.00;76111.66;5053542;22;19951;-69
2022/09/10 05:42:46;;;;;;;;;;;;;;;-142.75;100.00;76129.38;5034264;28;19921;-69
2022/09/10 05:45:11;;;;;;;;;;;;;;;-142.75;100.00;76117.56;5035567;28;19913;-70
2022/09/10 05:47:37;;;;;;;;;;;;;;;-142.75;100.00;76115.59;5017744;28;20378;-69
2022/09/10 05:50:02;;;;;;;;;;;;;;;-142.75;100.00;76123.47;5028533;28;19918;-69
2022/09/10 05:52:29;;;;;;;;;;;;;;;-142.75;100.00;76121.50;5034302;28;19924;-69
2022/09/10 05:54:55;;;;;;;;;;;;;;;-142.75;100.00;76113.63;5035515;28;20393;-69
2022/09/10 05:57:20;;;;;;;;;;;;;;;-142.75;100.00;76099.84;5035052;28;20000;-70
2022/09/10 05:59:45;;;;;;;;;;;;;;;-142.75;100.00;76091.97;5035426;28;20441;-69
2022/09/10 06:02:14;;;;;;;;;;;;;;;-142.75;100.00;76082.13;5035369;28;19943;-70
2022/09/10 06:04:40;;;;;;;;;;;;;;;-142.75;100.00;76070.34;5035425;28;19936;-69
2022/09/10 06:07:06;;;;;;;;;;;;;;;-142.75;100.00;76058.53;5035069;28;20371;-71
2022/09/10 06:09:31;;;;;;;;;;;;;;;-142.75;100.00;76040.81;5035075;28;20344;-70
2022/09/10 06:11:56;;;;;;;;;;;;;;;-142.75;100.00;76019.16;5035123;28;20012;-69
2022/09/10 06:14:23;;;;;;;;;;;;;;;-142.75;100.00;75999.47;5035188;28;20314;-69
2022/09/10 06:16:48;;;;;;;;;;;;;;;-142.75;100.00;75983.72;5033526;28;20003;-69
2022/09/10 06:19:13;;;;;;;;;;;;;;;-142.75;100.00;75971.91;5033730;28;19964;-70
2022/09/10 06:21:39;;;;;;;;;;;;;;;-142.75;100.00;75964.03;5035073;28;19913;-70
2022/09/10 06:24:04;;;;;;;;;;;;;;;-142.75;100.00;75956.19;5034963;28;19913;-71
2022/09/10 06:26:29;;;;;;;;;;;;;;;-142.75;100.00;75946.34;5033456;28;19913;-69
2022/09/10 06:28:55;;;;;;;;;;;;;;;-142.75;100.00;75952.25;5034482;28;19971;-70
2022/09/10 06:31:22;;;;;;;;;;;;;;;-142.75;100.00;75946.34;5033094;28;20000;-70
2022/09/10 06:33:50;;;;;;;;;;;;;;;-142.75;100.00;75948.31;5034841;28;20012;-70
2022/09/10 06:36:15;;;;;;;;;;;;;;;-142.75;100.00;75950.28;5034761;28;19956;-69
2022/09/10 06:38:40;;;;;;;;;;;;;;;-142.75;100.00;75934.53;5034223;28;19971;-69
2022/09/10 06:41:07;;;;;;;;;;;;;;;-142.75;100.00;75920.75;5034577;28;20400;-69
2022/09/10 06:43:35;;;;;;;;;;;;;;;-142.75;100.00;75920.75;5034592;28;19913;-70
2022/09/10 06:46:00;;;;;;;;;;;;;;;-142.75;100.00;75908.94;5034541;28;19913;-70
2022/09/10 06:48:27;;;;;;;;;;;;;;;-142.75;100.00;75897.13;5034160;28;20287;-70
2022/09/10 06:50:55;;;;;;;;;;;;;;;-142.75;100.00;75899.09;5034344;28;19999;-69
2022/09/10 06:53:23;;;;;;;;;;;;;;;-142.75;100.00;75893.19;5034336;28;20012;-71
2022/09/10 06:55:49;;;;;;;;;;;;;;;-142.75;100.00;75905.00;5034265;28;19928;-70
2022/09/10 06:58:14;;;;;;;;;;;;;;;-142.75;100.00;75908.94;5032764;28;19913;-70
2022/09/10 07:00:40;;;;;;;;;;;;;;;-142.75;100.00;75889.25;5034241;28;19951;-69
2022/09/10 07:03:05;;;;;;;;;;;;;;;-142.75;100.00;75879.41;5034234;28;19913;-70
2022/09/10 07:05:33;;;;;;;;;;;;;;;-142.75;100.00;75901.06;5034192;28;19917;-70
2022/09/10 07:07:59;;;;;;;;;;;;;;;-142.75;100.00;75895.16;5033116;28;19963;-69
2022/09/10 07:10:24;;;;;;;;;;;;;;;-142.75;100.00;75887.28;5033312;28;19921;-68
2022/09/10 07:12:49;;;;;;;;;;;;;;;-142.75;100.00;75897.13;5033543;28;19920;-68
2022/09/10 07:15:14;;;;;;;;;;;;;;;-142.75;100.00;75901.06;5033034;28;19917;-67
2022/09/10 07:17:40;;;;;;;;;;;;;;;-142.75;100.00;75903.03;5026039;28;19923;-70
2022/09/10 07:20:05;;;;;;;;;;;;;;;-142.75;100.00;75918.78;5032457;28;19963;-68
2022/09/10 07:22:31;;;;;;;;;;;;;;;-142.75;100.00;75908.94;5023153;28;19943;-69
2022/09/10 07:24:56;;;;;;;;;;;;;;;-142.75;100.00;75918.78;5018430;28;20395;-68
2022/09/10 07:27:21;;;;;;;;;;;;;;;-142.75;100.00;75912.88;5017194;28;19913;-68
2022/09/10 07:29:46;;;;;;;;;;;;;;;-142.75;100.00;75928.63;5034607;28;19918;-68
2022/09/10 07:32:11;;;;;;;;;;;;;;;-142.75;100.00;75922.72;5032971;28;19917;-66
2022/09/10 07:34:37;;;;;;;;;;;;;;;-142.75;100.00;75918.78;5032650;28;19912;-69
2022/09/10 07:37:02;;;;;;;;;;;;;;;-142.75;100.00;75928.63;5031432;28;19913;-68
2022/09/10 07:39:27;;;;;;;;;;;;;;;-142.75;100.00;75932.56;5032410;28;19992;-68
2022/09/10 07:41:52;;;;;;;;;;;;;;;-142.75;100.00;75910.91;5032942;28;19913;-67
2022/09/10 07:44:18;;;;;;;;;;;;;;;-142.75;100.00;75887.28;5026544;28;19917;-70
2022/09/10 07:46:45;;;;;;;;;;;;;;;-142.75;100.00;75857.78;5031753;28;19913;-67
2022/09/10 07:49:10;;;;;;;;;;;;;;;-142.75;100.00;75818.41;5028447;28;19976;-69
2022/09/10 07:51:35;;;;;;;;;;;;;;;-142.75;100.00;75800.69;5031292;28;19913;-68
2022/09/10 07:54:01;;;;;;;;;;;;;;;-142.75;100.00;75796.75;5032656;28;19917;-69
2022/09/10 07:56:29;;;;;;;;;;;;;;;-142.75;100.00;75767.22;5032379;28;19913;-69
2022/09/10 07:58:56;;;;;;;;;;;;;;;-142.75;100.00;75755.44;5028147;28;19924;-68
2022/09/10 08:01:22;;;;;;;;;;;;;;;-142.75;100.00;75718.03;5034439;28;19967;-68
2022/09/10 08:03:47;;;;;;;;;;;;;;;-142.75;100.00;75684.56;5016024;28;19960;-68
2022/09/10 08:06:13;;;;;;;;;;;;;;;-142.75;100.00;75629.47;5019600;28;19957;-69
2022/09/10 08:08:38;;;;;;;;;;;;;;;-142.75;100.00;75605.84;5018528;28;19922;-69
2022/09/10 08:11:08;;;;;;;;;;;;;;;-142.75;100.00;75546.81;5022039;28;20427;-70
2022/09/10 08:13:34;;;;;;;;;;;;;;;-142.75;100.00;75594.06;5030753;28;19917;-68
2022/09/10 08:15:59;;;;;;;;;;;;;;;-142.75;100.00;75578.31;5032203;28;19913;-69
2022/09/10 08:18:24;;;;;;;;;;;;;;;-142.75;100.00;75615.69;5031680;28;19966;-68
2022/09/10 08:20:53;;;;;;;;;;;;;;;-142.75;100.00;75643.25;5028465;28;19917;-68
2022/09/10 08:23:19;;;;;;;;;;;;;;;-142.75;100.00;75670.81;5017826;28;19944;-68
2022/09/10 08:25:50;;;;;;;;;;;;;;;-142.75;100.00;75702.28;5020110;28;19955;-69
2022/09/10 08:28:17;;;;;;;;;;;;;;;-142.75;100.00;75786.91;5017636;28;19921;-68
2022/09/10 08:30:42;;;;;;;;;;;;;;;-142.75;100.00;75828.25;5025709;28;19960;-68
2022/09/10 08:33:08;;;;;;;;;;;;;;;-142.75;100.00;75865.63;5032002;28;19956;-67
2022/09/10 08:35:33;;;;;;;;;;;;;;;-142.75;100.00;75897.13;5031792;28;20007;-68
2022/09/10 08:37:58;;;;;;;;;;;;;;;-142.75;100.00;75922.72;5028670;28;19917;-68
2022/09/10 08:40:23;;;;;;;;;;;;;;;-142.75;100.00;75940.44;5031271;28;19979;-68
2022/09/10 08:42:49;;;;;;;;;;;;;;;-142.75;100.00;75942.41;5031437;28;19917;-69
2022/09/10 08:45:17;;;;;;;;;;;;;;;-142.75;100.00;75950.28;5031403;28;19913;-68
2022/09/10 08:47:58;;;;;;;;;;;;;;;-142.75;100.00;75946.34;5031150;28;19913;-68
2022/09/10 08:50:26;;;;;;;;;;;;;;;-142.75;100.00;75975.84;5030993;28;20294;-67
2022/09/10 08:53:08;;;;;;;;;;;;;;;-142.75;100.00;75979.78;5030615;28;19921;-68
2022/09/10 08:55:36;;;;;;;;;;;;;;;-142.75;100.00;75997.50;5031574;28;19917;-68
2022/09/10 08:58:10;;;;;;;;;;;;;;;-142.75;100.00;76019.16;5031286;28;20031;-68
2022/09/10 09:00:39;;;;;;;;;;;;;;;-142.75;100.00;75997.50;5025647;28;20406;-67
2022/09/10 09:03:21;;;;;;;;;;;;;;;-142.75;100.00;75975.84;5030300;28;19952;-67
2022/09/10 09:05:48;;;;;;;;;;;;;;;-142.75;100.00;75983.72;5031582;28;19966;-67
2022/09/10 09:08:24;;;;;;;;;;;;;;;-142.75;100.00;75962.09;5031176;28;19913;-68
2022/09/10 09:11:05;;;;;;;;;;;;;;;-142.75;100.00;75932.56;5031495;28;20514;-68
2022/09/10 09:13:49;;;;;;;;;;;;;;;-142.75;100.00;75924.69;5017611;28;19917;-68
2022/09/10 09:16:26;;;;;;;;;;;;;;;-142.75;100.00;75887.28;5018518;28;19913;-68
2022/09/10 09:18:55;;;;;;;;;;;;;;;-142.75;100.00;75824.31;5031159;28;19921;-68
2022/09/10 09:21:29;;;;;;;;;;;;;;;-142.75;100.00;75800.69;5031359;28;19958;-68
2022/09/10 09:23:56;;;;;;;;;;;;;;;-142.75;100.00;75834.16;5031411;28;19913;-68
2022/09/10 09:26:34;;;;;;;;;;;;;;;-142.75;100.00;75822.34;5030054;28;19917;-68
2022/09/10 09:29:04;;;;;;;;;;;;;;;-142.75;100.00;75838.09;5023571;28;19964;-68
2022/09/10 09:31:36;;;;;;;;;;;;;;;-142.75;100.00;75842.03;5021208;28;19913;-69
2022/09/10 09:34:09;;;;;;;;;;;;;;;-142.75;100.00;75804.63;5026791;28;19968;-68
2022/09/10 09:36:41;;;;;;;;;;;;;;;-142.75;100.00;75757.41;5018726;28;19913;-65
2022/09/10 09:39:22;;;;;;;;;;;;;;;-142.75;100.00;75682.59;5023669;28;19924;-67
2022/09/10 09:41:50;;;;;;;;;;;;;;;-142.75;100.00;75639.31;5020104;28;19917;-68
2022/09/10 09:44:21;;;;;;;;;;;;;;;-142.75;100.00;75582.25;5017531;28;19913;-68
2022/09/10 09:46:48;;;;;;;;;;;;;;;-142.75;100.00;75586.19;5016186;28;19918;-67
2022/09/10 09:49:15;;;;;;;;;;;;;;;-142.75;100.00;75657.03;5018368;28;19999;-67
2022/09/10 09:51:41;;;;;;;;;;;;;;;-142.75;100.00;75716.06;5025724;28;19913;-67
2022/09/10 09:54:10;;;;;;;;;;;;;;;-142.75;100.00;75743.63;5031110;28;19913;-66
2022/09/10 09:56:41;;;;;;;;;;;;;;;-142.75;100.00;75771.16;5026556;28;19917;-66
2022/09/10 09:59:23;;;;;;;;;;;;;;;-142.75;100.00;75767.22;5030922;28;20314;-67
2022/09/10 10:01:49;;;;;;;;;;;;;;;-142.75;100.00;75714.09;5031087;28;20375;-66
2022/09/10 10:04:20;;;;;;;;;;;;;;;-142.75;100.00;75710.16;5030654;28;19913;-69
2022/09/10 10:06:51;;;;;;;;;;;;;;;-142.75;100.00;75676.69;5033400;28;19920;-70
2022/09/10 10:09:19;;;;;;;;;;;;;;;-142.75;100.00;75674.72;5034270;28;19917;-70
2022/09/10 10:11:44;;;;;;;;;;;;;;;-142.75;100.00;75653.09;5034622;28;19913;-67
2022/09/10 10:14:11;;;;;;;;;;;;;;;-142.75;100.00;75653.09;5032612;28;19919;-70
2022/09/10 10:16:36;;;;;;;;;;;;;;;-142.75;100.00;75597.97;5024313;28;19917;-67
2022/09/10 10:19:01;;;;;;;;;;;;;;;-142.75;100.00;75540.91;5034279;28;20016;-70
2022/09/10 10:21:31;;;;;;;;;;;;;;;-142.75;100.00;75546.81;5034300;28;20299;-70
2022/09/10 10:23:56;;;;;;;;;;;;;;;-142.75;100.00;75538.94;5034210;28;19914;-70
2022/09/10 10:26:29;;;;;;;;;;;;;;;-142.75;100.00;75501.56;5031243;28;19928;-70
2022/09/10 10:28:57;;;;;;;;;;;;;;;-142.75;100.00;75444.47;5033774;28;19967;-70
2022/09/10 10:31:22;;;;;;;;;;;;;;;-142.75;100.00;75448.41;5034222;28;20291;-70
2022/09/10 10:33:48;;;;;;;;;;;;;;;-142.75;100.00;75489.75;5033988;28;19917;-70
2022/09/10 10:36:13;;;;;;;;;;;;;;;-142.75;100.00;75546.81;5033332;28;19924;-69
2022/09/10 10:38:40;;;;;;;;;;;;;;;-142.75;100.00;75491.72;5033652;28;19933;-69
2022/09/10 10:41:24;;;;;;;;;;;;;;;-142.75;100.00;75442.50;5034707;28;20295;-68
2022/09/10 10:43:49;;;;;;;;;;;;;;;-142.75;100.00;75464.16;5034610;28;19920;-70
2022/09/10 10:46:36;;;;;;;;;;;;;;;-142.75;100.00;75542.88;5034487;28;19913;-70
2022/09/10 10:49:07;;;;;;;;;;;;;;;-142.75;100.00;75613.72;5034201;28;20414;-69
2022/09/10 10:51:35;;;;;;;;;;;;;;;-142.75;100.00;75700.31;5034405;28;19913;-68
2022/09/10 10:54:39;;;;;;;;;;;;;;;-142.75;100.00;75735.75;5033043;28;19920;-69
2022/09/10 10:57:27;;;;;;;;;;;;;;;-142.75;100.00;75788.88;4975019;28;19998;-69
2022/09/10 11:00:02;;;;;;;;;;;;;;;-142.75;100.00;75806.59;4975681;28;19917;-68
2022/09/10 11:02:34;;;;;;;;;;;;;;;-142.75;100.00;75794.78;5020041;28;20461;-69
2022/09/10 11:05:03;;;;;;;;;;;;;;;-142.75;100.00;75706.22;5033933;28;19913;-69
2022/09/10 11:07:29;;;;;;;;;;;;;;;-142.75;100.00;75605.84;5033862;28;19913;-69
2022/09/10 11:09:55;;;;;;;;;;;;;;;-142.75;100.00;75529.09;5033763;28;19928;-69
2022/09/10 11:12:26;;;;;;;;;;;;;;;-142.75;100.00;75554.69;5033082;28;19923;-68
2022/09/10 11:15:01;;;;;;;;;;;;;;;-142.75;100.00;75601.91;5033855;28;19917;-69
2022/09/10 11:17:45;;;;;;;;;;;;;;;-142.75;100.00;75641.28;5032409;28;19920;-69
2022/09/10 11:20:22;;;;;;;;;;;;;;;-142.75;100.00;75562.56;5033655;28;19936;-69
2022/09/10 11:22:51;;;;;;;;;;;;;;;-142.75;100.00;75481.88;5033693;28;19952;-69
2022/09/10 11:25:21;;;;;;;;;;;;;;;-142.75;100.00;75432.69;5033639;28;20306;-68
2022/09/10 11:27:50;;;;;;;;;;;;;;;-142.75;100.00;75416.94;5032912;28;20330;-69
2022/09/10 11:30:16;;;;;;;;;;;;;;;-142.75;100.00;75450.38;5033017;28;19917;-70
2022/09/10 11:32:44;;;;;;;;;;;;;;;-142.75;100.00;75509.44;5033054;28;19967;-69
2022/09/10 11:35:10;;;;;;;;;;;;;;;-142.75;100.00;75584.22;5032796;28;19920;-68
2022/09/10 11:37:50;;;;;;;;;;;;;;;-142.75;100.00;75637.34;5032996;28;19913;-69
2022/09/10 11:40:19;;;;;;;;;;;;;;;-142.75;100.00;75657.03;5065530;22;19924;-69
2022/09/10 11:42:49;;;;;;;;;;;;;;;-142.75;100.00;75633.41;5068146;28;19920;-68
2022/09/10 11:45:27;;;;;;;;;;;;;;;-142.75;100.00;75544.84;5069383;28;19989;-69
2022/09/10 11:48:09;;;;;;;;;;;;;;;-142.75;100.00;75566.50;5054053;28;20378;-68
2022/09/10 11:50:37;;;;;;;;;;;;;;;-142.75;100.00;75489.75;5054215;28;19917;-68
2022/09/10 11:53:06;;;;;;;;;;;;;;;-142.75;100.00;75416.94;5054052;28;19913;-68
2022/09/10 11:55:34;;;;;;;;;;;;;;;-142.75;100.00;75383.47;5054031;28;19920;-69
2022/09/10 11:58:18;;;;;;;;;;;;;;;-142.75;100.00;75389.38;5053922;28;19913;-69
2022/09/10 12:00:54;;;;;;;;;;;;;;;-142.75;100.00;75314.59;5052741;28;19913;-68
2022/09/10 12:03:22;;;;;;;;;;;;;;;-142.75;100.00;75292.97;5053214;28;19965;-68
2022/09/10 12:05:48;;;;;;;;;;;;;;;-142.75;100.00;75403.16;5052837;28;19916;-68
2022/09/10 12:08:29;;;;;;;;;;;;;;;-142.75;100.00;75507.47;5053025;28;20055;-69
2022/09/10 12:10:55;;;;;;;;;;;;;;;-142.75;100.00;75621.59;5053435;28;19962;-69
2022/09/10 12:13:21;;;;;;;;;;;;;;;-142.75;100.00;75700.31;5054019;28;19912;-68
2022/09/10 12:15:49;;;;;;;;;;;;;;;-142.75;100.00;75700.31;5053709;28;20119;-69
2022/09/10 12:18:17;;;;;;;;;;;;;;;-142.75;100.00;75605.84;5053102;28;19913;-68
2022/09/10 12:20:48;;;;;;;;;;;;;;;-142.75;100.00;75523.19;5053205;28;19952;-68
2022/09/10 12:23:25;;;;;;;;;;;;;;;-142.75;100.00;75521.22;5053682;28;19912;-69